Main page
Satellite images 10-day forecastsClimateMarine weather Cyclones Lightning AirportsFAQ Newsletter About
Weather : Europe Africa North America South America Asia Australia-Oceania Others
Languages Contact

Budapest, Hungary

Budapest Ferenc Liszt International Airport

latitude: 47-26N, longitude: 019-16E, elevation: 151 m


METAR: LHBP 290930Z 26006KT 190V310 CAVOK 19/09 Q1016 NOSIG
TAF: LHBP 290500Z 2906/3006 VRB03KT CAVOK TEMPO 2908/2916 20007KT SCT045 TEMPO 3000/3005 7000 MIFG

Time: 12:01 (10:01 UTC)

Current weather observation

The report was made 31 minutes ago, at 09:30 UTC
Wind 6 kt from the West, varying between South and Northwest
Temperature 19°C
Humidity 52%
Pressure 1016 hPa
Visibility 10 km or more
no clouds below 1500 m and no cumulonimbus

Change units

Forecast

The report was made 5 hours and 1 minutes ago, at 05:00 UTC
Forecast valid from 29 at 06 UTC to 30 at 06 UTC
Wind 3 kt from variable directions
Visibility 10 km or more
no clouds below 1500 m and no cumulonimbus
Temporary
from 29 at 08 UTC to 29 at 16 UTC
Wind 7 kt from the South/Southwest
Scattered clouds at a height of 4500 ft
Temporary
from 30 at 00 UTC to 30 at 05 UTC
Visibility: 7000 m
Shallow fog
The information on this site is subject to a disclaimer
Weather : Europe Africa North America South America Asia Australia-Oceania Others
Satellite images 10-day forecastsClimateMarine weather Cyclones Lightning AirportsFAQ Languages Contact Newsletter About